sensor_id;sensor_type;location;lat;lon;timestamp;pressure;altitude;pressure_sealevel;temperature;humidity
73910;BME280;62245;48.070;7.874;2022-10-16T13:39:12;99105.88;;;24.55;46.57
73910;BME280;62245;48.070;7.874;2022-10-16T13:41:36;99100.66;;;24.72;45.26
73910;BME280;62245;48.070;7.874;2022-10-16T13:44:02;99113.16;;;24.60;45.54
73910;BME280;62245;48.070;7.874;2022-10-16T13:46:27;99119.13;;;24.62;46.17
73910;BME280;62245;48.070;7.874;2022-10-16T13:49:04;99124.88;;;24.60;46.06
73910;BME280;62245;48.070;7.874;2022-10-16T13:51:31;99121.75;;;24.67;45.74
73910;BME280;62245;48.070;7.874;2022-10-16T13:53:57;99120.75;;;24.76;46.56
73910;BME280;62245;48.070;7.874;2022-10-16T13:56:26;99120.06;;;24.85;45.46
73910;BME280;62245;48.070;7.874;2022-10-16T13:59:40;99123.50;;;24.76;45.23
73910;BME280;62245;48.070;7.874;2022-10-16T14:02:43;99124.53;;;24.80;45.91
73910;BME280;62245;48.070;7.874;2022-10-16T14:05:09;99121.69;;;24.86;44.48
73910;BME280;62245;48.070;7.874;2022-10-16T14:07:39;99114.50;;;24.76;44.35
73910;BME280;62245;48.070;7.874;2022-10-16T14:10:07;99120.50;;;24.92;46.20
73910;BME280;62245;48.070;7.874;2022-10-16T14:12:43;99122.06;;;24.98;45.32
73910;BME280;62245;48.070;7.874;2022-10-16T14:15:17;99117.25;;;24.90;44.76
73910;BME280;62245;48.070;7.874;2022-10-16T14:17:44;99118.88;;;24.91;45.38
73910;BME280;62245;48.070;7.874;2022-10-16T14:20:14;99123.53;;;24.90;43.74
73910;BME280;62245;48.070;7.874;2022-10-16T14:22:41;99110.94;;;24.75;42.72
73910;BME280;62245;48.070;7.874;2022-10-16T14:27:55;99121.25;;;24.65;44.56
73910;BME280;62245;48.070;7.874;2022-10-16T14:30:21;99122.97;;;24.74;45.89
73910;BME280;62245;48.070;7.874;2022-10-16T14:33:24;99129.75;;;24.63;44.17
73910;BME280;62245;48.070;7.874;2022-10-16T14:36:15;99132.66;;;24.67;43.72
73910;BME280;62245;48.070;7.874;2022-10-16T14:38:48;99120.00;;;24.57;44.67
73910;BME280;62245;48.070;7.874;2022-10-16T14:41:14;99120.31;;;24.56;44.96
73910;BME280;62245;48.070;7.874;2022-10-16T14:43:41;99122.78;;;24.38;44.24
73910;BME280;62245;48.070;7.874;2022-10-16T14:46:12;99128.84;;;24.35;45.11
73910;BME280;62245;48.070;7.874;2022-10-16T14:48:43;99125.28;;;24.35;46.23
73910;BME280;62245;48.070;7.874;2022-10-16T14:51:17;99125.00;;;24.36;47.50
73910;BME280;62245;48.070;7.874;2022-10-16T14:53:42;99129.66;;;24.36;48.93
73910;BME280;62245;48.070;7.874;2022-10-16T14:56:48;99131.75;;;24.39;50.15
73910;BME280;62245;48.070;7.874;2022-10-16T14:59:35;99138.69;;;24.31;50.49
73910;BME280;62245;48.070;7.874;2022-10-16T15:02:33;99135.25;;;24.26;50.71
73910;BME280;62245;48.070;7.874;2022-10-16T15:04:58;99138.50;;;24.28;50.52
73910;BME280;62245;48.070;7.874;2022-10-16T15:07:27;99132.34;;;24.17;50.21
73910;BME280;62245;48.070;7.874;2022-10-16T15:09:52;99123.13;;;24.13;50.20
73910;BME280;62245;48.070;7.874;2022-10-16T15:12:18;99137.53;;;24.19;50.03
73910;BME280;62245;48.070;7.874;2022-10-16T15:14:44;99142.44;;;24.17;50.20
73910;BME280;62245;48.070;7.874;2022-10-16T15:17:10;99143.53;;;24.21;50.65
73910;BME280;62245;48.070;7.874;2022-10-16T15:19:36;99147.63;;;24.18;51.27
73910;BME280;62245;48.070;7.874;2022-10-16T15:22:01;99151.66;;;24.02;51.47
73910;BME280;62245;48.070;7.874;2022-10-16T15:24:27;99155.50;;;24.01;53.27
73910;BME280;62245;48.070;7.874;2022-10-16T15:26:52;99148.78;;;23.93;54.66
73910;BME280;62245;48.070;7.874;2022-10-16T15:29:17;99144.00;;;23.85;55.47
73910;BME280;62245;48.070;7.874;2022-10-16T15:31:43;99144.00;;;23.85;56.17
73910;BME280;62245;48.070;7.874;2022-10-16T15:34:09;99146.06;;;23.75;57.06
73910;BME280;62245;48.070;7.874;2022-10-16T15:36:37;99147.56;;;23.62;57.69
73910;BME280;62245;48.070;7.874;2022-10-16T15:39:04;99149.31;;;23.53;57.64
73910;BME280;62245;48.070;7.874;2022-10-16T15:41:30;99151.53;;;23.51;58.25
73910;BME280;62245;48.070;7.874;2022-10-16T15:43:55;99152.72;;;23.40;58.71
73910;BME280;62245;48.070;7.874;2022-10-16T15:46:22;99146.28;;;23.30;59.45
73910;BME280;62245;48.070;7.874;2022-10-16T15:48:48;99154.75;;;23.29;60.32
73910;BME280;62245;48.070;7.874;2022-10-16T15:51:14;99158.16;;;23.16;60.95
73910;BME280;62245;48.070;7.874;2022-10-16T15:53:40;99157.41;;;23.10;60.98
73910;BME280;62245;48.070;7.874;2022-10-16T15:56:06;99164.56;;;23.01;60.21
73910;BME280;62245;48.070;7.874;2022-10-16T15:58:32;99159.66;;;23.03;61.10
73910;BME280;62245;48.070;7.874;2022-10-16T16:00:58;99170.00;;;23.01;61.39
73910;BME280;62245;48.070;7.874;2022-10-16T16:03:26;99162.00;;;22.86;61.45
73910;BME280;62245;48.070;7.874;2022-10-16T16:05:52;99168.34;;;22.76;61.65
73910;BME280;62245;48.070;7.874;2022-10-16T16:08:18;99160.28;;;22.61;62.56
73910;BME280;62245;48.070;7.874;2022-10-16T16:10:43;99171.50;;;22.54;63.01
73910;BME280;62245;48.070;7.874;2022-10-16T16:13:08;99172.13;;;22.41;63.50
73910;BME280;62245;48.070;7.874;2022-10-16T16:15:34;99173.31;;;22.30;63.87
73910;BME280;62245;48.070;7.874;2022-10-16T16:17:59;99173.38;;;22.20;64.03
73910;BME280;62245;48.070;7.874;2022-10-16T16:20:27;99176.69;;;22.12;64.24
73910;BME280;62245;48.070;7.874;2022-10-16T16:22:52;99167.78;;;22.01;64.48
73910;BME280;62245;48.070;7.874;2022-10-16T16:25:17;99166.47;;;21.89;65.41
73910;BME280;62245;48.070;7.874;2022-10-16T16:27:42;99169.75;;;21.80;65.07
73910;BME280;62245;48.070;7.874;2022-10-16T16:30:11;99169.84;;;21.70;65.35
73910;BME280;62245;48.070;7.874;2022-10-16T16:32:36;99160.38;;;21.58;65.86
73910;BME280;62245;48.070;7.874;2022-10-16T16:35:02;99172.63;;;21.50;65.92
73910;BME280;62245;48.070;7.874;2022-10-16T16:37:29;99168.84;;;21.41;66.16
73910;BME280;62245;48.070;7.874;2022-10-16T16:39:54;99177.84;;;21.31;66.11
73910;BME280;62245;48.070;7.874;2022-10-16T16:42:20;99181.66;;;21.20;66.83
73910;BME280;62245;48.070;7.874;2022-10-16T16:44:47;99176.50;;;21.14;66.97
73910;BME280;62245;48.070;7.874;2022-10-16T16:47:12;99173.56;;;21.00;67.20
73910;BME280;62245;48.070;7.874;2022-10-16T16:49:38;99183.03;;;20.97;66.87
73910;BME280;62245;48.070;7.874;2022-10-16T16:52:03;99177.06;;;20.85;67.07
73910;BME280;62245;48.070;7.874;2022-10-16T16:54:29;99186.59;;;20.83;67.82
73910;BME280;62245;48.070;7.874;2022-10-16T16:56:54;99185.25;;;20.75;67.82
73910;BME280;62245;48.070;7.874;2022-10-16T16:59:20;99191.47;;;20.70;67.59
73910;BME280;62245;48.070;7.874;2022-10-16T17:01:47;99193.91;;;20.62;67.66
73910;BME280;62245;48.070;7.874;2022-10-16T17:04:13;99204.47;;;20.58;67.66
73910;BME280;62245;48.070;7.874;2022-10-16T17:06:40;99201.75;;;20.53;67.61
73910;BME280;62245;48.070;7.874;2022-10-16T17:09:06;99197.16;;;20.49;67.91
73910;BME280;62245;48.070;7.874;2022-10-16T17:11:33;99213.16;;;20.40;68.22
73910;BME280;62245;48.070;7.874;2022-10-16T17:13:59;99217.72;;;20.34;68.76
73910;BME280;62245;48.070;7.874;2022-10-16T17:16:31;99219.31;;;20.30;68.89
73910;BME280;62245;48.070;7.874;2022-10-16T17:19:09;99229.31;;;20.25;68.74
73910;BME280;62245;48.070;7.874;2022-10-16T17:21:35;99232.84;;;20.20;68.83
73910;BME280;62245;48.070;7.874;2022-10-16T17:24:01;99222.53;;;20.17;68.35
73910;BME280;62245;48.070;7.874;2022-10-16T17:26:27;99224.16;;;20.13;67.54
73910;BME280;62245;48.070;7.874;2022-10-16T17:28:54;99226.31;;;20.11;67.82
73910;BME280;62245;48.070;7.874;2022-10-16T17:31:25;99229.81;;;20.07;67.78
73910;BME280;62245;48.070;7.874;2022-10-16T17:33:51;99230.06;;;20.00;68.38
73910;BME280;62245;48.070;7.874;2022-10-16T17:36:18;99241.72;;;19.95;68.66
73910;BME280;62245;48.070;7.874;2022-10-16T17:38:44;99242.22;;;19.87;69.13
73910;BME280;62245;48.070;7.874;2022-10-16T17:43:43;99254.38;;;19.80;69.55
73910;BME280;62245;48.070;7.874;2022-10-16T17:46:10;99248.09;;;19.74;69.89
73910;BME280;62245;48.070;7.874;2022-10-16T17:48:37;99257.56;;;19.67;70.15
73910;BME280;62245;48.070;7.874;2022-10-16T17:51:05;99255.91;;;19.61;70.44
73910;BME280;62245;48.070;7.874;2022-10-16T17:53:30;99262.91;;;19.56;70.68
73910;BME280;62245;48.070;7.874;2022-10-16T17:55:56;99265.03;;;19.49;71.16
73910;BME280;62245;48.070;7.874;2022-10-16T17:58:23;99266.09;;;19.48;71.19
73910;BME280;62245;48.070;7.874;2022-10-16T18:00:49;99263.91;;;19.45;71.55
73910;BME280;62245;48.070;7.874;2022-10-16T18:03:14;99272.03;;;19.45;71.22
73910;BME280;62245;48.070;7.874;2022-10-16T18:05:39;99272.84;;;19.46;71.03
73910;BME280;62245;48.070;7.874;2022-10-16T18:08:05;99281.22;;;19.44;71.28
73910;BME280;62245;48.070;7.874;2022-10-16T18:10:30;99280.41;;;19.44;70.93
73910;BME280;62245;48.070;7.874;2022-10-16T18:12:55;99273.31;;;19.38;71.30
73910;BME280;62245;48.070;7.874;2022-10-16T18:15:21;99273.31;;;19.38;71.02
73910;BME280;62245;48.070;7.874;2022-10-16T18:17:46;99276.56;;;19.35;70.99
73910;BME280;62245;48.070;7.874;2022-10-16T18:20:11;99276.78;;;19.28;70.89
73910;BME280;62245;48.070;7.874;2022-10-16T18:22:37;99287.88;;;19.27;70.63
73910;BME280;62245;48.070;7.874;2022-10-16T18:25:04;99293.47;;;19.20;70.89
73910;BME280;62245;48.070;7.874;2022-10-16T18:27:30;99280.47;;;19.17;70.83
73910;BME280;62245;48.070;7.874;2022-10-16T18:29:56;99290.19;;;19.13;71.06
73910;BME280;62245;48.070;7.874;2022-10-16T18:32:22;99293.69;;;19.13;71.00
73910;BME280;62245;48.070;7.874;2022-10-16T18:34:48;99297.19;;;19.09;71.62
73910;BME280;62245;48.070;7.874;2022-10-16T18:37:13;99296.31;;;19.03;71.04
73910;BME280;62245;48.070;7.874;2022-10-16T18:39:39;99309.09;;;19.08;71.01
73910;BME280;62245;48.070;7.874;2022-10-16T18:42:05;99302.28;;;19.05;71.26
73910;BME280;62245;48.070;7.874;2022-10-16T18:44:30;99304.16;;;19.00;70.88
73910;BME280;62245;48.070;7.874;2022-10-16T18:46:56;99306.84;;;19.00;70.56
73910;BME280;62245;48.070;7.874;2022-10-16T18:49:23;99303.91;;;19.01;70.47
73910;BME280;62245;48.070;7.874;2022-10-16T18:51:49;99311.13;;;18.96;70.89
73910;BME280;62245;48.070;7.874;2022-10-16T18:54:16;99311.13;;;18.96;70.53
73910;BME280;62245;48.070;7.874;2022-10-16T18:56:42;99316.00;;;18.94;70.84
73910;BME280;62245;48.070;7.874;2022-10-16T18:59:08;99307.78;;;18.83;71.02
73910;BME280;62245;48.070;7.874;2022-10-16T19:01:34;99308.28;;;18.80;70.93
73910;BME280;62245;48.070;7.874;2022-10-16T19:04:04;99311.25;;;18.79;70.85
73910;BME280;62245;48.070;7.874;2022-10-16T19:06:34;99318.53;;;18.78;70.79
73910;BME280;62245;48.070;7.874;2022-10-16T19:09:00;99309.91;;;18.76;70.71
73910;BME280;62245;48.070;7.874;2022-10-16T19:11:25;99308.50;;;18.74;70.50
73910;BME280;62245;48.070;7.874;2022-10-16T19:13:52;99315.31;;;18.76;69.96
73910;BME280;62245;48.070;7.874;2022-10-16T19:16:32;99314.19;;;18.77;69.79
73910;BME280;62245;48.070;7.874;2022-10-16T19:19:00;99321.25;;;18.78;70.02
73910;BME280;62245;48.070;7.874;2022-10-16T19:21:26;99322.31;;;18.77;69.94
73910;BME280;62245;48.070;7.874;2022-10-16T19:23:54;99330.75;;;18.81;70.29
73910;BME280;62245;48.070;7.874;2022-10-16T19:26:20;99335.81;;;18.77;69.51
73910;BME280;62245;48.070;7.874;2022-10-16T19:28:46;99342.34;;;18.76;69.84
73910;BME280;62245;48.070;7.874;2022-10-16T19:31:15;99344.72;;;18.73;69.85
73910;BME280;62245;48.070;7.874;2022-10-16T19:33:41;99337.91;;;18.70;69.81
73910;BME280;62245;48.070;7.874;2022-10-16T19:36:10;99354.13;;;18.70;69.86
73910;BME280;62245;48.070;7.874;2022-10-16T19:38:37;99357.38;;;18.67;69.89
73910;BME280;62245;48.070;7.874;2022-10-16T19:41:14;99359.50;;;18.65;69.66
73910;BME280;62245;48.070;7.874;2022-10-16T19:43:40;99363.47;;;18.58;69.65
73910;BME280;62245;48.070;7.874;2022-10-16T19:46:08;99370.97;;;18.56;69.71
73910;BME280;62245;48.070;7.874;2022-10-16T19:48:34;99376.94;;;18.36;70.11
73910;BME280;62245;48.070;7.874;2022-10-16T19:50:59;99385.06;;;18.36;70.45
73910;BME280;62245;48.070;7.874;2022-10-16T19:53:25;99385.88;;;18.36;70.97
73910;BME280;62245;48.070;7.874;2022-10-16T19:55:52;99393.94;;;18.31;71.61
73910;BME280;62245;48.070;7.874;2022-10-16T19:58:18;99401.69;;;18.28;71.67
73910;BME280;62245;48.070;7.874;2022-10-16T20:00:45;99408.34;;;18.20;71.66
73910;BME280;62245;48.070;7.874;2022-10-16T20:03:10;99398.81;;;18.13;71.80
73910;BME280;62245;48.070;7.874;2022-10-16T20:05:35;99398.66;;;18.02;72.29
73910;BME280;62245;48.070;7.874;2022-10-16T20:08:01;99412.41;;;18.01;72.42
73910;BME280;62245;48.070;7.874;2022-10-16T20:10:26;99405.56;;;17.93;72.61
73910;BME280;62245;48.070;7.874;2022-10-16T20:12:51;99407.44;;;17.93;72.06
73910;BME280;62245;48.070;7.874;2022-10-16T20:15:17;99417.94;;;17.89;72.43
73910;BME280;62245;48.070;7.874;2022-10-16T20:17:43;99417.84;;;17.84;73.03
73910;BME280;62245;48.070;7.874;2022-10-16T20:20:08;99417.84;;;17.84;73.46
73910;BME280;62245;48.070;7.874;2022-10-16T20:22:34;99422.00;;;17.75;73.12
73910;BME280;62245;48.070;7.874;2022-10-16T20:25:00;99420.88;;;17.71;73.43
73910;BME280;62245;48.070;7.874;2022-10-16T20:27:25;99421.50;;;17.61;73.59
73910;BME280;62245;48.070;7.874;2022-10-16T20:29:53;99431.03;;;17.64;74.00
73910;BME280;62245;48.070;7.874;2022-10-16T20:32:18;99424.53;;;17.65;73.68
73910;BME280;62245;48.070;7.874;2022-10-16T20:34:44;99440.50;;;17.66;73.56
73910;BME280;62245;48.070;7.874;2022-10-16T20:37:13;99440.59;;;17.71;73.66
73910;BME280;62245;48.070;7.874;2022-10-16T20:39:38;99438.84;;;17.65;73.74
73910;BME280;62245;48.070;7.874;2022-10-16T20:42:03;99434.19;;;17.61;74.20
73910;BME280;62245;48.070;7.874;2022-10-16T20:44:28;99447.09;;;17.59;74.38
73910;BME280;62245;48.070;7.874;2022-10-16T20:46:54;99439.16;;;17.52;74.41
73910;BME280;62245;48.070;7.874;2022-10-16T20:49:20;99447.03;;;17.54;74.30
73910;BME280;62245;48.070;7.874;2022-10-16T20:51:45;99448.06;;;17.53;74.25
73910;BME280;62245;48.070;7.874;2022-10-16T20:54:14;99448.91;;;17.53;74.09
73910;BME280;62245;48.070;7.874;2022-10-16T20:56:41;99444.31;;;17.54;73.95
73910;BME280;62245;48.070;7.874;2022-10-16T20:59:09;99443.81;;;17.57;73.89
73910;BME280;62245;48.070;7.874;2022-10-16T21:01:34;99432.72;;;17.53;74.12
73910;BME280;62245;48.070;7.874;2022-10-16T21:04:02;99438.69;;;17.55;73.72
73910;BME280;62245;48.070;7.874;2022-10-16T21:06:30;99436.22;;;17.54;73.88
73910;BME280;62245;48.070;7.874;2022-10-16T21:08:56;99427.78;;;17.50;73.86
73910;BME280;62245;48.070;7.874;2022-10-16T21:11:25;99436.22;;;17.54;73.65
73910;BME280;62245;48.070;7.874;2022-10-16T21:13:53;99423.69;;;17.48;73.80
73910;BME280;62245;48.070;7.874;2022-10-16T21:16:18;99428.38;;;17.52;73.49
73910;BME280;62245;48.070;7.874;2022-10-16T21:18:43;99431.13;;;17.57;73.26
73910;BME280;62245;48.070;7.874;2022-10-16T21:21:10;99427.91;;;17.55;73.37
73910;BME280;62245;48.070;7.874;2022-10-16T21:23:36;99431.38;;;17.56;73.17
73910;BME280;62245;48.070;7.874;2022-10-16T21:26:02;99429.78;;;17.55;73.07
73910;BME280;62245;48.070;7.874;2022-10-16T21:28:31;99435.47;;;17.58;73.06
73910;BME280;62245;48.070;7.874;2022-10-16T21:30:56;99431.38;;;17.56;72.68
73910;BME280;62245;48.070;7.874;2022-10-16T21:33:23;99431.38;;;17.56;72.67
73910;BME280;62245;48.070;7.874;2022-10-16T21:35:48;99439.56;;;17.61;72.66
73910;BME280;62245;48.070;7.874;2022-10-16T21:38:14;99442.75;;;17.58;72.80
73910;BME280;62245;48.070;7.874;2022-10-16T21:40:39;99446.50;;;17.57;72.98
73910;BME280;62245;48.070;7.874;2022-10-16T21:43:04;99452.88;;;17.51;72.92
73910;BME280;62245;48.070;7.874;2022-10-16T21:45:31;99450.19;;;17.51;73.09
73910;BME280;62245;48.070;7.874;2022-10-16T21:47:57;99451.25;;;17.50;72.98
73910;BME280;62245;48.070;7.874;2022-10-16T21:50:22;99451.84;;;17.52;72.66
73910;BME280;62245;48.070;7.874;2022-10-16T21:52:48;99452.53;;;17.47;72.88
73910;BME280;62245;48.070;7.874;2022-10-16T21:55:13;99453.38;;;17.48;72.39
73910;BME280;62245;48.070;7.874;2022-10-16T21:57:38;99447.06;;;17.42;72.32
73910;BME280;62245;48.070;7.874;2022-10-16T22:00:05;99457.09;;;17.30;73.00
73910;BME280;62245;48.070;7.874;2022-10-16T22:02:31;99458.63;;;17.09;73.62
73910;BME280;62245;48.070;7.874;2022-10-16T22:04:57;99458.63;;;17.09;73.54
73910;BME280;62245;48.070;7.874;2022-10-16T22:07:22;99438.84;;;17.04;74.05
73910;BME280;62245;48.070;7.874;2022-10-16T22:09:47;99458.50;;;17.04;74.06
73910;BME280;62245;48.070;7.874;2022-10-16T22:12:12;99455.75;;;16.99;74.03
73910;BME280;62245;48.070;7.874;2022-10-16T22:14:43;99453.19;;;16.92;74.00
73910;BME280;62245;48.070;7.874;2022-10-16T22:17:09;99455.31;;;16.90;74.84
73910;BME280;62245;48.070;7.874;2022-10-16T22:19:34;99463.16;;;16.92;74.12
73910;BME280;62245;48.070;7.874;2022-10-16T22:21:59;99457.84;;;16.57;75.27
73910;BME280;62245;48.070;7.874;2022-10-16T22:24:25;99453.97;;;16.65;74.84
73910;BME280;62245;48.070;7.874;2022-10-16T22:26:50;99458.63;;;16.69;75.26
73910;BME280;62245;48.070;7.874;2022-10-16T22:29:16;99461.72;;;16.61;75.45
73910;BME280;62245;48.070;7.874;2022-10-16T22:31:42;99461.81;;;16.54;75.84
73910;BME280;62245;48.070;7.874;2022-10-16T22:34:10;99464.31;;;16.33;77.05
73910;BME280;62245;48.070;7.874;2022-10-16T22:36:36;99470.75;;;16.32;76.99
73910;BME280;62245;48.070;7.874;2022-10-16T22:39:02;99468.66;;;16.34;76.77
73910;BME280;62245;48.070;7.874;2022-10-16T22:41:28;99469.81;;;16.38;76.57
73910;BME280;62245;48.070;7.874;2022-10-16T22:43:53;99476.00;;;16.38;76.91
73910;BME280;62245;48.070;7.874;2022-10-16T22:46:24;99470.75;;;16.32;77.06
73910;BME280;62245;48.070;7.874;2022-10-16T22:48:50;99475.31;;;16.31;76.75
73910;BME280;62245;48.070;7.874;2022-10-16T22:51:16;99475.19;;;16.26;77.17
73910;BME280;62245;48.070;7.874;2022-10-16T22:53:42;99479.06;;;16.30;76.97
73910;BME280;62245;48.070;7.874;2022-10-16T22:56:08;99486.19;;;16.36;76.50
73910;BME280;62245;48.070;7.874;2022-10-16T22:58:34;99493.72;;;16.34;76.53
73910;BME280;62245;48.070;7.874;2022-10-16T23:01:00;99481.75;;;16.30;76.39
73910;BME280;62245;48.070;7.874;2022-10-16T23:03:25;99480.13;;;16.29;76.43
73910;BME280;62245;48.070;7.874;2022-10-16T23:05:51;99480.00;;;16.36;75.73
73910;BME280;62245;48.070;7.874;2022-10-16T23:08:17;99492.19;;;16.38;75.77
73910;BME280;62245;48.070;7.874;2022-10-16T23:10:44;99490.44;;;16.32;76.25
73910;BME280;62245;48.070;7.874;2022-10-16T23:13:10;99486.78;;;16.38;75.63
73910;BME280;62245;48.070;7.874;2022-10-16T23:15:39;99485.16;;;16.37;75.79
73910;BME280;62245;48.070;7.874;2022-10-16T23:18:05;99484.09;;;16.38;75.65
73910;BME280;62245;48.070;7.874;2022-10-16T23:20:30;99485.75;;;16.39;75.68
73910;BME280;62245;48.070;7.874;2022-10-16T23:22:56;99487.38;;;16.40;75.49
73910;BME280;62245;48.070;7.874;2022-10-16T23:25:21;99491.47;;;16.43;75.14
73910;BME280;62245;48.070;7.874;2022-10-16T23:27:46;99487.97;;;16.31;75.73
73910;BME280;62245;48.070;7.874;2022-10-16T23:30:12;99493.47;;;16.36;76.22
73910;BME280;62245;48.070;7.874;2022-10-16T23:32:37;99488.44;;;16.39;75.51
73910;BME280;62245;48.070;7.874;2022-10-16T23:35:02;99483.72;;;16.46;75.27
73910;BME280;62245;48.070;7.874;2022-10-16T23:37:28;99488.16;;;16.52;74.83
73910;BME280;62245;48.070;7.874;2022-10-16T23:39:53;99484.19;;;16.55;74.87
73910;BME280;62245;48.070;7.874;2022-10-16T23:42:19;99482.31;;;16.55;75.02
73910;BME280;62245;48.070;7.874;2022-10-16T23:44:44;99488.88;;;16.59;74.66
73910;BME280;62245;48.070;7.874;2022-10-16T23:47:10;99487.94;;;16.66;74.80
73910;BME280;62245;48.070;7.874;2022-10-16T23:49:35;99484.44;;;16.65;74.73
73910;BME280;62245;48.070;7.874;2022-10-16T23:52:00;99488.88;;;16.71;73.90
73910;BME280;62245;48.070;7.874;2022-10-16T23:54:25;99482.66;;;16.71;73.98
73910;BME280;62245;48.070;7.874;2022-10-16T23:56:51;99482.19;;;16.74;73.55
73910;BME280;62245;48.070;7.874;2022-10-16T23:59:16;99487.94;;;16.77;73.72
